Hamilton, Nebraska
Current Conditions -  °F | °C
As of 5:15 AM on Wednesday 26 Nov 2014 (Local Time) from KHJH Reporting Station
Clear Clear  
Wind Chill: 26°   Ceiling: Unl
Heat Index: 35°   Visibility: 10mi
Dew Point: 25°   Wind: 12mph
Humidity: 67%   Direction: 300°WNW
Pressure: 29.97"   Gusts: 17mph
Location:  40.3936°N, 97.5387°W
Report Text: KHJH 261115Z AUTO 30010G15KT 10SM CLR 02/M04 A2997 RMK AO2 T00151040
Loading
Personal Weather Stations






























Interactive Weather Map New forecast layout! Learn more

10-Day Weather Forecast

Advertisements
Track Severe Weather on mobile